Everett, Georgia
Current Conditions -  °F | °C
As of 3:55 PM on Tuesday 27 Jan 2015 (Local Time) from KBQK Reporting Station
Broken Clouds Broken Clouds  
Wind Chill: 55°   Ceiling: 6500
Heat Index: 55°   Visibility: 10mi
Dew Point: 34°   Wind: 10mph
Humidity: 44%   Direction: 290°WNW
Pressure: 29.91"   Gusts: 17mph
Location:  31.2665°N, 81.6074°W
Report Text: KBQK 272055Z AUTO 29009G15KT 10SM SCT055 BKN065 13/01 A2991 RMK AO1
Loading
Personal Weather Stations






























Interactive Weather Map New forecast layout! Learn more

10-Day Weather Forecast

Advertisements
Track Severe Weather on mobile